sensor_id;sensor_type;location;lat;lon;timestamp;P1;durP1;ratioP1;P2;durP2;ratioP2
54835;SDS011;43486;43.574;1.476;2024-01-15T00:01:45;10.63;;;6.22;;
54835;SDS011;43486;43.574;1.476;2024-01-15T00:04:10;11.43;;;6.53;;
54835;SDS011;43486;43.574;1.476;2024-01-15T00:06:36;9.63;;;6.28;;
54835;SDS011;43486;43.574;1.476;2024-01-15T00:09:01;11.10;;;5.68;;
54835;SDS011;43486;43.574;1.476;2024-01-15T00:11:27;9.93;;;5.65;;
54835;SDS011;43486;43.574;1.476;2024-01-15T00:13:53;8.18;;;6.20;;
54835;SDS011;43486;43.574;1.476;2024-01-15T00:16:18;11.05;;;6.80;;
54835;SDS011;43486;43.574;1.476;2024-01-15T00:18:43;12.65;;;6.70;;
54835;SDS011;43486;43.574;1.476;2024-01-15T00:21:09;10.75;;;5.63;;
54835;SDS011;43486;43.574;1.476;2024-01-15T00:23:34;10.45;;;6.38;;
54835;SDS011;43486;43.574;1.476;2024-01-15T00:26:00;12.32;;;5.18;;
54835;SDS011;43486;43.574;1.476;2024-01-15T00:28:25;10.30;;;5.57;;
54835;SDS011;43486;43.574;1.476;2024-01-15T00:30:51;9.15;;;6.30;;
54835;SDS011;43486;43.574;1.476;2024-01-15T00:33:16;10.85;;;6.70;;
54835;SDS011;43486;43.574;1.476;2024-01-15T00:35:41;14.82;;;5.90;;
54835;SDS011;43486;43.574;1.476;2024-01-15T00:38:07;12.55;;;5.90;;
54835;SDS011;43486;43.574;1.476;2024-01-15T00:40:32;11.25;;;6.30;;
54835;SDS011;43486;43.574;1.476;2024-01-15T00:42:58;10.52;;;5.68;;
54835;SDS011;43486;43.574;1.476;2024-01-15T00:45:23;8.57;;;5.25;;
54835;SDS011;43486;43.574;1.476;2024-01-15T00:47:48;12.25;;;6.47;;
54835;SDS011;43486;43.574;1.476;2024-01-15T00:50:14;8.63;;;4.50;;
54835;SDS011;43486;43.574;1.476;2024-01-15T00:52:39;8.95;;;5.60;;
54835;SDS011;43486;43.574;1.476;2024-01-15T00:55:05;10.13;;;5.57;;
54835;SDS011;43486;43.574;1.476;2024-01-15T00:57:31;10.55;;;6.07;;
54835;SDS011;43486;43.574;1.476;2024-01-15T00:59:56;13.93;;;5.20;;
54835;SDS011;43486;43.574;1.476;2024-01-15T01:02:21;10.60;;;6.03;;
54835;SDS011;43486;43.574;1.476;2024-01-15T01:04:47;10.10;;;6.03;;
54835;SDS011;43486;43.574;1.476;2024-01-15T01:07:12;9.18;;;5.95;;
54835;SDS011;43486;43.574;1.476;2024-01-15T01:09:37;10.45;;;5.10;;
54835;SDS011;43486;43.574;1.476;2024-01-15T01:12:03;10.15;;;6.43;;
54835;SDS011;43486;43.574;1.476;2024-01-15T01:14:28;7.85;;;5.82;;
54835;SDS011;43486;43.574;1.476;2024-01-15T01:16:54;11.77;;;4.70;;
54835;SDS011;43486;43.574;1.476;2024-01-15T01:19:19;9.60;;;4.72;;
54835;SDS011;43486;43.574;1.476;2024-01-15T01:21:44;9.75;;;4.70;;
54835;SDS011;43486;43.574;1.476;2024-01-15T01:24:10;10.10;;;6.13;;
54835;SDS011;43486;43.574;1.476;2024-01-15T01:26:35;7.85;;;5.20;;
54835;SDS011;43486;43.574;1.476;2024-01-15T01:29:00;9.95;;;4.88;;
54835;SDS011;43486;43.574;1.476;2024-01-15T01:31:26;8.38;;;5.30;;
54835;SDS011;43486;43.574;1.476;2024-01-15T01:33:51;8.65;;;4.88;;
54835;SDS011;43486;43.574;1.476;2024-01-15T01:36:17;10.00;;;5.88;;
54835;SDS011;43486;43.574;1.476;2024-01-15T01:38:42;8.32;;;5.05;;
54835;SDS011;43486;43.574;1.476;2024-01-15T01:41:07;8.65;;;4.78;;
54835;SDS011;43486;43.574;1.476;2024-01-15T01:43:33;9.80;;;4.63;;
54835;SDS011;43486;43.574;1.476;2024-01-15T01:45:59;10.10;;;5.82;;
54835;SDS011;43486;43.574;1.476;2024-01-15T01:48:25;6.50;;;3.72;;
54835;SDS011;43486;43.574;1.476;2024-01-15T01:50:54;8.02;;;5.75;;
54835;SDS011;43486;43.574;1.476;2024-01-15T01:53:22;9.15;;;5.55;;
54835;SDS011;43486;43.574;1.476;2024-01-15T01:55:48;8.23;;;4.82;;
54835;SDS011;43486;43.574;1.476;2024-01-15T01:58:13;12.40;;;5.97;;
54835;SDS011;43486;43.574;1.476;2024-01-15T02:00:39;9.32;;;5.28;;
54835;SDS011;43486;43.574;1.476;2024-01-15T02:03:05;8.60;;;4.57;;
54835;SDS011;43486;43.574;1.476;2024-01-15T02:05:31;7.20;;;5.03;;
54835;SDS011;43486;43.574;1.476;2024-01-15T02:07:57;10.27;;;5.18;;
54835;SDS011;43486;43.574;1.476;2024-01-15T02:10:22;8.45;;;5.07;;
54835;SDS011;43486;43.574;1.476;2024-01-15T02:12:47;6.90;;;4.50;;
54835;SDS011;43486;43.574;1.476;2024-01-15T02:15:13;7.63;;;4.85;;
54835;SDS011;43486;43.574;1.476;2024-01-15T02:18:01;7.35;;;4.68;;
54835;SDS011;43486;43.574;1.476;2024-01-15T02:20:26;7.13;;;4.57;;
54835;SDS011;43486;43.574;1.476;2024-01-15T02:22:51;6.95;;;4.65;;
54835;SDS011;43486;43.574;1.476;2024-01-15T02:25:17;10.02;;;4.70;;
54835;SDS011;43486;43.574;1.476;2024-01-15T02:27:43;8.05;;;4.78;;
54835;SDS011;43486;43.574;1.476;2024-01-15T02:30:09;7.55;;;4.63;;
54835;SDS011;43486;43.574;1.476;2024-01-15T02:32:36;8.10;;;4.35;;
54835;SDS011;43486;43.574;1.476;2024-01-15T02:35:01;7.47;;;4.57;;
54835;SDS011;43486;43.574;1.476;2024-01-15T02:37:27;11.60;;;3.95;;
54835;SDS011;43486;43.574;1.476;2024-01-15T02:39:52;10.80;;;4.95;;
54835;SDS011;43486;43.574;1.476;2024-01-15T02:42:17;10.88;;;4.75;;
54835;SDS011;43486;43.574;1.476;2024-01-15T02:44:43;8.70;;;5.70;;
54835;SDS011;43486;43.574;1.476;2024-01-15T02:47:08;9.60;;;4.35;;
54835;SDS011;43486;43.574;1.476;2024-01-15T02:49:34;8.10;;;5.18;;
54835;SDS011;43486;43.574;1.476;2024-01-15T02:51:59;11.57;;;4.45;;
54835;SDS011;43486;43.574;1.476;2024-01-15T02:54:24;8.57;;;4.53;;
54835;SDS011;43486;43.574;1.476;2024-01-15T02:56:50;8.63;;;4.20;;
54835;SDS011;43486;43.574;1.476;2024-01-15T02:59:15;8.63;;;4.22;;
54835;SDS011;43486;43.574;1.476;2024-01-15T03:01:41;20.02;;;4.88;;
54835;SDS011;43486;43.574;1.476;2024-01-15T03:04:06;7.78;;;3.85;;
54835;SDS011;43486;43.574;1.476;2024-01-15T03:06:31;6.93;;;4.43;;
54835;SDS011;43486;43.574;1.476;2024-01-15T03:08:57;9.40;;;5.00;;
54835;SDS011;43486;43.574;1.476;2024-01-15T03:11:22;10.32;;;4.70;;
54835;SDS011;43486;43.574;1.476;2024-01-15T03:13:47;9.35;;;4.70;;
54835;SDS011;43486;43.574;1.476;2024-01-15T03:16:13;9.55;;;5.00;;
54835;SDS011;43486;43.574;1.476;2024-01-15T03:18:38;7.88;;;5.05;;
54835;SDS011;43486;43.574;1.476;2024-01-15T03:21:04;8.27;;;4.18;;
54835;SDS011;43486;43.574;1.476;2024-01-15T03:23:30;5.45;;;3.53;;
54835;SDS011;43486;43.574;1.476;2024-01-15T03:25:55;9.55;;;5.35;;
54835;SDS011;43486;43.574;1.476;2024-01-15T03:28:20;8.85;;;5.13;;
54835;SDS011;43486;43.574;1.476;2024-01-15T03:30:46;6.40;;;3.50;;
54835;SDS011;43486;43.574;1.476;2024-01-15T03:33:11;7.55;;;4.57;;
54835;SDS011;43486;43.574;1.476;2024-01-15T03:35:37;8.15;;;4.35;;
54835;SDS011;43486;43.574;1.476;2024-01-15T03:38:02;6.93;;;3.55;;
54835;SDS011;43486;43.574;1.476;2024-01-15T03:40:27;6.63;;;4.10;;
54835;SDS011;43486;43.574;1.476;2024-01-15T03:42:53;9.18;;;4.00;;
54835;SDS011;43486;43.574;1.476;2024-01-15T03:45:19;7.30;;;4.50;;
54835;SDS011;43486;43.574;1.476;2024-01-15T03:47:44;5.72;;;3.22;;
54835;SDS011;43486;43.574;1.476;2024-01-15T03:50:10;8.18;;;4.30;;
54835;SDS011;43486;43.574;1.476;2024-01-15T03:52:35;8.02;;;4.13;;
54835;SDS011;43486;43.574;1.476;2024-01-15T03:55:01;4.97;;;3.63;;
54835;SDS011;43486;43.574;1.476;2024-01-15T03:57:26;7.57;;;4.13;;
54835;SDS011;43486;43.574;1.476;2024-01-15T03:59:51;8.07;;;4.13;;
54835;SDS011;43486;43.574;1.476;2024-01-15T04:02:17;6.75;;;3.83;;
54835;SDS011;43486;43.574;1.476;2024-01-15T04:04:42;7.38;;;4.68;;
54835;SDS011;43486;43.574;1.476;2024-01-15T04:07:09;11.85;;;4.55;;
54835;SDS011;43486;43.574;1.476;2024-01-15T04:09:34;8.40;;;4.25;;
54835;SDS011;43486;43.574;1.476;2024-01-15T04:12:00;7.50;;;3.50;;
54835;SDS011;43486;43.574;1.476;2024-01-15T04:14:25;8.98;;;4.60;;
54835;SDS011;43486;43.574;1.476;2024-01-15T04:16:50;9.10;;;3.88;;
54835;SDS011;43486;43.574;1.476;2024-01-15T04:19:16;9.48;;;4.13;;
54835;SDS011;43486;43.574;1.476;2024-01-15T04:21:41;7.75;;;4.05;;
54835;SDS011;43486;43.574;1.476;2024-01-15T04:24:06;6.63;;;3.50;;
54835;SDS011;43486;43.574;1.476;2024-01-15T04:26:32;7.50;;;4.20;;
54835;SDS011;43486;43.574;1.476;2024-01-15T04:28:57;8.68;;;3.33;;
54835;SDS011;43486;43.574;1.476;2024-01-15T04:31:24;7.82;;;4.07;;
54835;SDS011;43486;43.574;1.476;2024-01-15T04:33:50;12.63;;;3.70;;
54835;SDS011;43486;43.574;1.476;2024-01-15T04:36:15;8.15;;;3.78;;
54835;SDS011;43486;43.574;1.476;2024-01-15T04:38:40;6.07;;;3.53;;
54835;SDS011;43486;43.574;1.476;2024-01-15T04:41:06;5.93;;;3.47;;
54835;SDS011;43486;43.574;1.476;2024-01-15T04:43:31;9.00;;;4.05;;
54835;SDS011;43486;43.574;1.476;2024-01-15T04:45:57;8.20;;;3.95;;
54835;SDS011;43486;43.574;1.476;2024-01-15T04:48:22;8.23;;;3.63;;
54835;SDS011;43486;43.574;1.476;2024-01-15T04:50:48;8.93;;;4.55;;
54835;SDS011;43486;43.574;1.476;2024-01-15T04:53:13;7.50;;;4.20;;
54835;SDS011;43486;43.574;1.476;2024-01-15T04:55:39;8.88;;;4.07;;
54835;SDS011;43486;43.574;1.476;2024-01-15T04:58:04;6.63;;;3.55;;
54835;SDS011;43486;43.574;1.476;2024-01-15T05:00:29;5.80;;;3.47;;
54835;SDS011;43486;43.574;1.476;2024-01-15T05:02:55;5.85;;;3.15;;
54835;SDS011;43486;43.574;1.476;2024-01-15T05:05:21;8.55;;;2.95;;
54835;SDS011;43486;43.574;1.476;2024-01-15T05:07:46;7.15;;;3.47;;
54835;SDS011;43486;43.574;1.476;2024-01-15T05:10:12;6.95;;;3.90;;
54835;SDS011;43486;43.574;1.476;2024-01-15T05:12:37;5.82;;;3.10;;
54835;SDS011;43486;43.574;1.476;2024-01-15T05:15:03;6.63;;;3.67;;
54835;SDS011;43486;43.574;1.476;2024-01-15T05:17:28;7.50;;;3.90;;
54835;SDS011;43486;43.574;1.476;2024-01-15T05:19:54;9.52;;;4.07;;
54835;SDS011;43486;43.574;1.476;2024-01-15T05:22:19;6.10;;;3.75;;
54835;SDS011;43486;43.574;1.476;2024-01-15T05:24:46;7.90;;;3.65;;
54835;SDS011;43486;43.574;1.476;2024-01-15T05:27:11;5.72;;;3.33;;
54835;SDS011;43486;43.574;1.476;2024-01-15T05:29:37;5.72;;;3.30;;
54835;SDS011;43486;43.574;1.476;2024-01-15T05:32:02;6.25;;;3.17;;
54835;SDS011;43486;43.574;1.476;2024-01-15T05:34:28;6.72;;;3.85;;
54835;SDS011;43486;43.574;1.476;2024-01-15T05:36:53;7.70;;;3.75;;
54835;SDS011;43486;43.574;1.476;2024-01-15T05:39:18;8.52;;;3.55;;
54835;SDS011;43486;43.574;1.476;2024-01-15T05:41:44;5.75;;;2.67;;
54835;SDS011;43486;43.574;1.476;2024-01-15T05:44:09;7.07;;;3.63;;
54835;SDS011;43486;43.574;1.476;2024-01-15T05:46:35;6.65;;;3.38;;
54835;SDS011;43486;43.574;1.476;2024-01-15T05:49:01;5.88;;;2.88;;
54835;SDS011;43486;43.574;1.476;2024-01-15T05:51:26;7.47;;;3.53;;
54835;SDS011;43486;43.574;1.476;2024-01-15T05:53:52;6.15;;;3.22;;
54835;SDS011;43486;43.574;1.476;2024-01-15T05:56:17;6.85;;;3.72;;
54835;SDS011;43486;43.574;1.476;2024-01-15T05:58:42;8.93;;;4.00;;
54835;SDS011;43486;43.574;1.476;2024-01-15T06:01:08;7.85;;;3.05;;
54835;SDS011;43486;43.574;1.476;2024-01-15T06:03:33;8.73;;;3.58;;
54835;SDS011;43486;43.574;1.476;2024-01-15T06:05:59;13.75;;;3.78;;
54835;SDS011;43486;43.574;1.476;2024-01-15T06:08:24;7.53;;;3.20;;
54835;SDS011;43486;43.574;1.476;2024-01-15T06:10:51;7.88;;;3.33;;
54835;SDS011;43486;43.574;1.476;2024-01-15T06:13:17;8.05;;;3.88;;
54835;SDS011;43486;43.574;1.476;2024-01-15T06:15:42;6.85;;;3.03;;
54835;SDS011;43486;43.574;1.476;2024-01-15T06:18:07;8.73;;;3.83;;
54835;SDS011;43486;43.574;1.476;2024-01-15T06:20:33;5.65;;;3.53;;
54835;SDS011;43486;43.574;1.476;2024-01-15T06:22:58;6.95;;;3.70;;
54835;SDS011;43486;43.574;1.476;2024-01-15T06:25:23;5.95;;;3.28;;
54835;SDS011;43486;43.574;1.476;2024-01-15T06:27:49;8.88;;;4.63;;
54835;SDS011;43486;43.574;1.476;2024-01-15T06:30:14;8.05;;;3.75;;
54835;SDS011;43486;43.574;1.476;2024-01-15T06:32:40;5.70;;;3.38;;
54835;SDS011;43486;43.574;1.476;2024-01-15T06:35:05;7.85;;;3.90;;
54835;SDS011;43486;43.574;1.476;2024-01-15T06:37:31;6.03;;;3.58;;
54835;SDS011;43486;43.574;1.476;2024-01-15T06:39:57;8.35;;;3.53;;
54835;SDS011;43486;43.574;1.476;2024-01-15T06:42:23;7.40;;;3.33;;
54835;SDS011;43486;43.574;1.476;2024-01-15T06:44:48;8.90;;;3.63;;
54835;SDS011;43486;43.574;1.476;2024-01-15T06:47:14;6.63;;;2.88;;
54835;SDS011;43486;43.574;1.476;2024-01-15T06:49:39;7.05;;;3.53;;
54835;SDS011;43486;43.574;1.476;2024-01-15T06:52:05;6.28;;;3.13;;
54835;SDS011;43486;43.574;1.476;2024-01-15T06:54:31;7.68;;;3.88;;
54835;SDS011;43486;43.574;1.476;2024-01-15T06:56:56;9.57;;;4.03;;
54835;SDS011;43486;43.574;1.476;2024-01-15T06:59:22;7.40;;;3.30;;
54835;SDS011;43486;43.574;1.476;2024-01-15T07:01:47;6.70;;;3.70;;
54835;SDS011;43486;43.574;1.476;2024-01-15T07:04:12;5.88;;;3.03;;
54835;SDS011;43486;43.574;1.476;2024-01-15T07:06:38;8.45;;;3.13;;
54835;SDS011;43486;43.574;1.476;2024-01-15T07:09:04;7.07;;;3.95;;
54835;SDS011;43486;43.574;1.476;2024-01-15T07:11:30;7.18;;;3.85;;
54835;SDS011;43486;43.574;1.476;2024-01-15T07:13:55;10.45;;;3.70;;
54835;SDS011;43486;43.574;1.476;2024-01-15T07:16:20;7.20;;;4.07;;
54835;SDS011;43486;43.574;1.476;2024-01-15T07:18:46;6.32;;;3.13;;
54835;SDS011;43486;43.574;1.476;2024-01-15T07:21:11;6.47;;;3.75;;
54835;SDS011;43486;43.574;1.476;2024-01-15T07:23:36;8.48;;;3.45;;
54835;SDS011;43486;43.574;1.476;2024-01-15T07:26:02;12.98;;;4.28;;
54835;SDS011;43486;43.574;1.476;2024-01-15T07:28:30;5.85;;;3.25;;
54835;SDS011;43486;43.574;1.476;2024-01-15T07:30:56;6.07;;;3.08;;
54835;SDS011;43486;43.574;1.476;2024-01-15T07:33:22;8.07;;;4.15;;
54835;SDS011;43486;43.574;1.476;2024-01-15T07:35:47;7.22;;;3.55;;
54835;SDS011;43486;43.574;1.476;2024-01-15T07:38:12;8.20;;;3.53;;
54835;SDS011;43486;43.574;1.476;2024-01-15T07:40:38;6.32;;;3.88;;
54835;SDS011;43486;43.574;1.476;2024-01-15T07:43:03;5.65;;;2.92;;
54835;SDS011;43486;43.574;1.476;2024-01-15T07:45:28;7.22;;;3.22;;
54835;SDS011;43486;43.574;1.476;2024-01-15T07:47:54;6.93;;;4.38;;
54835;SDS011;43486;43.574;1.476;2024-01-15T07:50:20;9.30;;;4.10;;
54835;SDS011;43486;43.574;1.476;2024-01-15T07:52:45;6.30;;;3.47;;
54835;SDS011;43486;43.574;1.476;2024-01-15T07:55:10;6.10;;;3.17;;
54835;SDS011;43486;43.574;1.476;2024-01-15T07:57:36;7.50;;;3.53;;
54835;SDS011;43486;43.574;1.476;2024-01-15T08:00:02;7.13;;;3.72;;
54835;SDS011;43486;43.574;1.476;2024-01-15T08:02:30;9.65;;;4.25;;
54835;SDS011;43486;43.574;1.476;2024-01-15T08:04:57;8.60;;;4.13;;
54835;SDS011;43486;43.574;1.476;2024-01-15T08:07:23;6.78;;;3.58;;
54835;SDS011;43486;43.574;1.476;2024-01-15T08:09:50;8.32;;;3.80;;
54835;SDS011;43486;43.574;1.476;2024-01-15T08:12:16;6.30;;;3.22;;
54835;SDS011;43486;43.574;1.476;2024-01-15T08:14:42;8.45;;;4.43;;
54835;SDS011;43486;43.574;1.476;2024-01-15T08:17:07;6.22;;;2.90;;
54835;SDS011;43486;43.574;1.476;2024-01-15T08:19:32;6.85;;;4.05;;
54835;SDS011;43486;43.574;1.476;2024-01-15T08:21:58;5.72;;;3.20;;
54835;SDS011;43486;43.574;1.476;2024-01-15T08:24:23;7.38;;;3.40;;
54835;SDS011;43486;43.574;1.476;2024-01-15T08:26:49;10.45;;;4.28;;
54835;SDS011;43486;43.574;1.476;2024-01-15T08:29:14;8.70;;;3.50;;
54835;SDS011;43486;43.574;1.476;2024-01-15T08:31:40;6.22;;;4.15;;
54835;SDS011;43486;43.574;1.476;2024-01-15T08:34:05;11.50;;;3.65;;
54835;SDS011;43486;43.574;1.476;2024-01-15T08:36:30;8.30;;;4.32;;
54835;SDS011;43486;43.574;1.476;2024-01-15T08:38:56;6.28;;;3.42;;
54835;SDS011;43486;43.574;1.476;2024-01-15T08:41:22;7.43;;;4.20;;
54835;SDS011;43486;43.574;1.476;2024-01-15T08:43:48;10.70;;;4.38;;
54835;SDS011;43486;43.574;1.476;2024-01-15T08:46:13;7.07;;;3.65;;
54835;SDS011;43486;43.574;1.476;2024-01-15T08:48:39;6.30;;;3.55;;
54835;SDS011;43486;43.574;1.476;2024-01-15T08:51:04;5.57;;;3.15;;
54835;SDS011;43486;43.574;1.476;2024-01-15T08:53:30;6.70;;;3.60;;
54835;SDS011;43486;43.574;1.476;2024-01-15T08:55:55;16.67;;;4.57;;
54835;SDS011;43486;43.574;1.476;2024-01-15T08:58:23;8.32;;;3.35;;
54835;SDS011;43486;43.574;1.476;2024-01-15T09:00:48;7.78;;;3.47;;
54835;SDS011;43486;43.574;1.476;2024-01-15T09:03:14;12.15;;;3.58;;
54835;SDS011;43486;43.574;1.476;2024-01-15T09:05:39;7.10;;;3.63;;
54835;SDS011;43486;43.574;1.476;2024-01-15T09:08:05;7.90;;;3.70;;
54835;SDS011;43486;43.574;1.476;2024-01-15T09:10:31;6.32;;;3.92;;
54835;SDS011;43486;43.574;1.476;2024-01-15T09:12:56;6.78;;;3.42;;
54835;SDS011;43486;43.574;1.476;2024-01-15T09:15:22;7.60;;;4.53;;
54835;SDS011;43486;43.574;1.476;2024-01-15T09:17:48;8.55;;;3.85;;
54835;SDS011;43486;43.574;1.476;2024-01-15T09:20:13;9.18;;;3.40;;
54835;SDS011;43486;43.574;1.476;2024-01-15T09:22:40;5.90;;;3.45;;
54835;SDS011;43486;43.574;1.476;2024-01-15T09:25:07;6.20;;;3.45;;
54835;SDS011;43486;43.574;1.476;2024-01-15T09:27:33;6.47;;;3.38;;
54835;SDS011;43486;43.574;1.476;2024-01-15T09:29:59;5.57;;;3.17;;
54835;SDS011;43486;43.574;1.476;2024-01-15T09:32:24;8.23;;;3.38;;
54835;SDS011;43486;43.574;1.476;2024-01-15T09:34:50;8.57;;;3.75;;
54835;SDS011;43486;43.574;1.476;2024-01-15T09:37:15;7.82;;;3.72;;
54835;SDS011;43486;43.574;1.476;2024-01-15T09:39:41;14.68;;;4.13;;
54835;SDS011;43486;43.574;1.476;2024-01-15T09:42:06;8.98;;;4.20;;
54835;SDS011;43486;43.574;1.476;2024-01-15T09:44:33;5.63;;;3.83;;
54835;SDS011;43486;43.574;1.476;2024-01-15T09:46:58;6.60;;;3.33;;
54835;SDS011;43486;43.574;1.476;2024-01-15T09:49:23;9.52;;;3.95;;
54835;SDS011;43486;43.574;1.476;2024-01-15T09:51:49;11.15;;;4.72;;
54835;SDS011;43486;43.574;1.476;2024-01-15T09:54:15;6.55;;;3.90;;
54835;SDS011;43486;43.574;1.476;2024-01-15T09:56:42;6.97;;;3.60;;
54835;SDS011;43486;43.574;1.476;2024-01-15T09:59:10;7.80;;;5.10;;
54835;SDS011;43486;43.574;1.476;2024-01-15T10:01:36;8.73;;;4.70;;
54835;SDS011;43486;43.574;1.476;2024-01-15T10:04:03;8.38;;;4.43;;
54835;SDS011;43486;43.574;1.476;2024-01-15T10:06:29;9.60;;;4.32;;
54835;SDS011;43486;43.574;1.476;2024-01-15T10:08:55;7.05;;;3.67;;
54835;SDS011;43486;43.574;1.476;2024-01-15T10:11:23;7.38;;;4.25;;
54835;SDS011;43486;43.574;1.476;2024-01-15T10:13:48;6.95;;;4.18;;
54835;SDS011;43486;43.574;1.476;2024-01-15T10:16:18;12.15;;;4.82;;
54835;SDS011;43486;43.574;1.476;2024-01-15T10:18:44;7.47;;;4.75;;
54835;SDS011;43486;43.574;1.476;2024-01-15T10:21:09;6.50;;;4.20;;
54835;SDS011;43486;43.574;1.476;2024-01-15T10:23:35;10.63;;;3.92;;
54835;SDS011;43486;43.574;1.476;2024-01-15T10:26:01;15.55;;;4.95;;
54835;SDS011;43486;43.574;1.476;2024-01-15T10:28:27;13.93;;;4.70;;
54835;SDS011;43486;43.574;1.476;2024-01-15T10:30:55;8.00;;;4.50;;
54835;SDS011;43486;43.574;1.476;2024-01-15T10:33:22;7.88;;;4.22;;
54835;SDS011;43486;43.574;1.476;2024-01-15T10:35:50;7.82;;;4.90;;
54835;SDS011;43486;43.574;1.476;2024-01-15T10:38:18;9.07;;;4.63;;
54835;SDS011;43486;43.574;1.476;2024-01-15T10:40:47;9.15;;;5.07;;
54835;SDS011;43486;43.574;1.476;2024-01-15T10:43:12;17.77;;;4.80;;
54835;SDS011;43486;43.574;1.476;2024-01-15T10:45:37;10.68;;;4.68;;
54835;SDS011;43486;43.574;1.476;2024-01-15T10:48:03;12.20;;;4.88;;
54835;SDS011;43486;43.574;1.476;2024-01-15T10:50:29;10.60;;;5.28;;
54835;SDS011;43486;43.574;1.476;2024-01-15T10:52:54;7.82;;;4.38;;
54835;SDS011;43486;43.574;1.476;2024-01-15T10:55:20;13.05;;;4.55;;
54835;SDS011;43486;43.574;1.476;2024-01-15T10:57:46;10.95;;;5.55;;
54835;SDS011;43486;43.574;1.476;2024-01-15T11:00:13;30.88;;;5.97;;
54835;SDS011;43486;43.574;1.476;2024-01-15T11:02:39;17.38;;;5.88;;
54835;SDS011;43486;43.574;1.476;2024-01-15T11:05:05;12.43;;;4.30;;
54835;SDS011;43486;43.574;1.476;2024-01-15T11:07:31;9.05;;;4.70;;
54835;SDS011;43486;43.574;1.476;2024-01-15T11:09:56;19.63;;;5.28;;
54835;SDS011;43486;43.574;1.476;2024-01-15T11:12:24;9.02;;;4.75;;
54835;SDS011;43486;43.574;1.476;2024-01-15T11:14:49;11.60;;;5.97;;
54835;SDS011;43486;43.574;1.476;2024-01-15T11:17:15;14.77;;;6.13;;
54835;SDS011;43486;43.574;1.476;2024-01-15T11:19:42;9.88;;;4.57;;
54835;SDS011;43486;43.574;1.476;2024-01-15T11:25:02;7.88;;;4.97;;
54835;SDS011;43486;43.574;1.476;2024-01-15T11:27:49;9.68;;;4.85;;
54835;SDS011;43486;43.574;1.476;2024-01-15T11:30:20;17.90;;;5.45;;
54835;SDS011;43486;43.574;1.476;2024-01-15T11:32:50;10.70;;;5.72;;
54835;SDS011;43486;43.574;1.476;2024-01-15T11:35:15;6.68;;;3.60;;
54835;SDS011;43486;43.574;1.476;2024-01-15T11:40:58;8.70;;;5.45;;
54835;SDS011;43486;43.574;1.476;2024-01-15T11:43:05;8.38;;;3.97;;
54835;SDS011;43486;43.574;1.476;2024-01-15T11:45:34;11.80;;;5.20;;
54835;SDS011;43486;43.574;1.476;2024-01-15T11:50:35;8.05;;;5.00;;
54835;SDS011;43486;43.574;1.476;2024-01-15T11:53:05;12.52;;;4.53;;
54835;SDS011;43486;43.574;1.476;2024-01-15T11:55:39;9.13;;;5.00;;
54835;SDS011;43486;43.574;1.476;2024-01-15T11:58:07;9.75;;;5.25;;
54835;SDS011;43486;43.574;1.476;2024-01-15T12:00:34;8.30;;;5.03;;
54835;SDS011;43486;43.574;1.476;2024-01-15T12:03:00;6.68;;;4.30;;
54835;SDS011;43486;43.574;1.476;2024-01-15T12:05:27;8.35;;;4.70;;
54835;SDS011;43486;43.574;1.476;2024-01-15T12:07:52;9.23;;;4.70;;
54835;SDS011;43486;43.574;1.476;2024-01-15T12:10:18;7.05;;;4.07;;
54835;SDS011;43486;43.574;1.476;2024-01-15T12:13:04;8.43;;;4.97;;
54835;SDS011;43486;43.574;1.476;2024-01-15T12:15:31;10.27;;;4.88;;
54835;SDS011;43486;43.574;1.476;2024-01-15T12:17:57;9.07;;;4.63;;
54835;SDS011;43486;43.574;1.476;2024-01-15T12:20:24;8.45;;;4.38;;
54835;SDS011;43486;43.574;1.476;2024-01-15T12:22:56;7.50;;;4.20;;
54835;SDS011;43486;43.574;1.476;2024-01-15T12:25:22;9.57;;;4.53;;
54835;SDS011;43486;43.574;1.476;2024-01-15T12:27:48;7.07;;;3.92;;
54835;SDS011;43486;43.574;1.476;2024-01-15T12:30:14;6.03;;;3.40;;
54835;SDS011;43486;43.574;1.476;2024-01-15T12:32:40;9.68;;;4.88;;
54835;SDS011;43486;43.574;1.476;2024-01-15T12:35:07;8.40;;;5.00;;
54835;SDS011;43486;43.574;1.476;2024-01-15T12:37:35;14.75;;;6.13;;
54835;SDS011;43486;43.574;1.476;2024-01-15T12:42:33;7.82;;;5.03;;
54835;SDS011;43486;43.574;1.476;2024-01-15T12:44:59;6.78;;;4.95;;
54835;SDS011;43486;43.574;1.476;2024-01-15T12:47:25;9.88;;;5.22;;
54835;SDS011;43486;43.574;1.476;2024-01-15T12:49:51;9.95;;;4.20;;
54835;SDS011;43486;43.574;1.476;2024-01-15T12:52:20;7.32;;;4.70;;
54835;SDS011;43486;43.574;1.476;2024-01-15T12:54:49;10.63;;;4.55;;
54835;SDS011;43486;43.574;1.476;2024-01-15T12:57:15;6.13;;;3.55;;
54835;SDS011;43486;43.574;1.476;2024-01-15T12:59:40;7.75;;;3.83;;
54835;SDS011;43486;43.574;1.476;2024-01-15T13:02:06;9.57;;;4.18;;
54835;SDS011;43486;43.574;1.476;2024-01-15T13:04:32;8.68;;;5.05;;
54835;SDS011;43486;43.574;1.476;2024-01-15T13:06:57;13.27;;;5.13;;
54835;SDS011;43486;43.574;1.476;2024-01-15T13:09:22;7.68;;;3.92;;
54835;SDS011;43486;43.574;1.476;2024-01-15T13:11:48;9.30;;;5.43;;
54835;SDS011;43486;43.574;1.476;2024-01-15T13:14:13;8.07;;;4.85;;
54835;SDS011;43486;43.574;1.476;2024-01-15T13:16:42;9.27;;;4.43;;
54835;SDS011;43486;43.574;1.476;2024-01-15T13:19:07;7.70;;;3.97;;
54835;SDS011;43486;43.574;1.476;2024-01-15T13:21:34;9.93;;;4.50;;
54835;SDS011;43486;43.574;1.476;2024-01-15T13:23:59;8.63;;;4.63;;
54835;SDS011;43486;43.574;1.476;2024-01-15T13:26:25;7.35;;;4.32;;
54835;SDS011;43486;43.574;1.476;2024-01-15T13:28:50;8.45;;;4.60;;
54835;SDS011;43486;43.574;1.476;2024-01-15T13:31:16;11.68;;;4.85;;
54835;SDS011;43486;43.574;1.476;2024-01-15T13:33:41;9.13;;;3.92;;
54835;SDS011;43486;43.574;1.476;2024-01-15T13:36:07;10.65;;;4.35;;
54835;SDS011;43486;43.574;1.476;2024-01-15T13:38:35;9.85;;;4.10;;
54835;SDS011;43486;43.574;1.476;2024-01-15T13:41:04;7.30;;;3.65;;
54835;SDS011;43486;43.574;1.476;2024-01-15T13:43:30;8.13;;;4.28;;
54835;SDS011;43486;43.574;1.476;2024-01-15T13:45:56;10.13;;;5.47;;
54835;SDS011;43486;43.574;1.476;2024-01-15T13:48:22;10.48;;;4.10;;
54835;SDS011;43486;43.574;1.476;2024-01-15T13:50:47;9.85;;;4.20;;
54835;SDS011;43486;43.574;1.476;2024-01-15T13:53:12;6.63;;;3.65;;
54835;SDS011;43486;43.574;1.476;2024-01-15T13:55:38;7.38;;;3.30;;
54835;SDS011;43486;43.574;1.476;2024-01-15T13:58:03;6.63;;;3.90;;
54835;SDS011;43486;43.574;1.476;2024-01-15T14:00:31;5.63;;;3.63;;
54835;SDS011;43486;43.574;1.476;2024-01-15T14:02:57;11.38;;;4.22;;
54835;SDS011;43486;43.574;1.476;2024-01-15T14:05:22;12.35;;;4.85;;
54835;SDS011;43486;43.574;1.476;2024-01-15T14:07:48;10.23;;;4.20;;
54835;SDS011;43486;43.574;1.476;2024-01-15T14:10:13;8.52;;;4.15;;
54835;SDS011;43486;43.574;1.476;2024-01-15T14:12:39;5.97;;;3.13;;
54835;SDS011;43486;43.574;1.476;2024-01-15T14:15:05;7.43;;;3.65;;
54835;SDS011;43486;43.574;1.476;2024-01-15T14:17:31;11.40;;;3.65;;
54835;SDS011;43486;43.574;1.476;2024-01-15T14:19:56;8.30;;;4.10;;
54835;SDS011;43486;43.574;1.476;2024-01-15T14:22:22;6.93;;;3.90;;
54835;SDS011;43486;43.574;1.476;2024-01-15T14:24:47;6.47;;;3.50;;
54835;SDS011;43486;43.574;1.476;2024-01-15T14:27:12;8.63;;;4.00;;
54835;SDS011;43486;43.574;1.476;2024-01-15T14:29:38;9.02;;;4.03;;
54835;SDS011;43486;43.574;1.476;2024-01-15T14:32:03;10.05;;;4.50;;
54835;SDS011;43486;43.574;1.476;2024-01-15T14:34:29;7.20;;;3.97;;
54835;SDS011;43486;43.574;1.476;2024-01-15T14:36:54;8.05;;;5.13;;
54835;SDS011;43486;43.574;1.476;2024-01-15T14:39:20;9.02;;;4.38;;
54835;SDS011;43486;43.574;1.476;2024-01-15T14:41:46;6.20;;;4.05;;
54835;SDS011;43486;43.574;1.476;2024-01-15T14:44:12;7.60;;;4.10;;
54835;SDS011;43486;43.574;1.476;2024-01-15T14:46:37;6.95;;;4.47;;
54835;SDS011;43486;43.574;1.476;2024-01-15T14:49:03;6.22;;;3.67;;